Achinsk Airport


Codes: UNKS/ACS
Name: Achinsk Airport
City: Achinsk
Country: Russia
Elevation: 1033 ft.
Wikipedia:

Photos at Achinsk Airport


   Photos courtesy of SpottingLog. You can add your own sightings and photos by signing up for a free trial today.



No photos found.

Weather at Achinsk Airport


Time (UTC)DescriptionTempratureWindCloud coverageVisibilityPressureHumidity
15-Apr-2024 18:00Light Snow0°C13 mph, NW100%7098m1013hPa92%
15-Apr-2024 21:00Light Snow-1°C11 mph, NW98%10000m1018hPa82%
16-Apr-2024 00:00Overcast Clouds-4°C7 mph, NW89%10000m1024hPa76%
16-Apr-2024 03:00Overcast Clouds-1°C7 mph, NW99%10000m1026hPa57%
16-Apr-2024 06:00Broken Clouds2°C7 mph, NW67%10000m1026hPa46%
16-Apr-2024 09:00Clear Sky3°C7 mph, N5%10000m1026hPa43%
16-Apr-2024 12:00Clear Sky2°C4 mph, NE5%10000m1027hPa49%
16-Apr-2024 15:00Clear Sky-1°C4 mph, NE1%10000m1028hPa68%
16-Apr-2024 18:00Clear Sky-2°C4 mph, E1%10000m1029hPa74%
16-Apr-2024 21:00Clear Sky-2°C4 mph, E1%10000m1029hPa76%
17-Apr-2024 00:00Clear Sky-2°C4 mph, E1%10000m1029hPa70%
17-Apr-2024 03:00Clear Sky4°C7 mph, SE0%10000m1029hPa46%
17-Apr-2024 06:00Clear Sky7°C7 mph, SE1%10000m1027hPa40%
17-Apr-2024 09:00Clear Sky9°C9 mph, SE3%10000m1024hPa41%
17-Apr-2024 12:00Clear Sky8°C9 mph, SE3%10000m1022hPa54%
17-Apr-2024 15:00Overcast Clouds5°C11 mph, SE85%10000m1020hPa65%
17-Apr-2024 18:00Overcast Clouds6°C13 mph, SE92%10000m1016hPa63%
17-Apr-2024 21:00Light Rain6°C13 mph, S100%10000m1014hPa71%
18-Apr-2024 00:00Light Rain6°C13 mph, SW100%10000m1013hPa73%
18-Apr-2024 03:00Light Rain8°C16 mph, SW93%10000m1014hPa77%
18-Apr-2024 06:00Light Rain9°C16 mph, W90%10000m1016hPa62%
18-Apr-2024 09:00Broken Clouds10°C13 mph, NW77%10000m1017hPa53%
18-Apr-2024 12:00Light Rain8°C9 mph, NW75%10000m1018hPa66%
18-Apr-2024 15:00Clear Sky5°C4 mph, SW8%10000m1018hPa82%
18-Apr-2024 18:00Scattered Clouds4°C7 mph, S45%10000m1017hPa85%
18-Apr-2024 21:00Overcast Clouds4°C9 mph, S99%10000m1014hPa80%
19-Apr-2024 00:00Overcast Clouds7°C13 mph, S100%10000m1010hPa70%
19-Apr-2024 03:00Light Rain7°C18 mph, S100%10000m1006hPa84%
19-Apr-2024 06:00Moderate Rain7°C16 mph, SW100%7340m1001hPa93%
19-Apr-2024 09:00Moderate Rain9°C20 mph, W98%10000m1003hPa73%
19-Apr-2024 12:00Light Rain7°C20 mph, W65%10000m1006hPa70%
19-Apr-2024 15:00Light Rain3°C20 mph, W100%10000m1012hPa87%
19-Apr-2024 18:00Light Snow2°C18 mph, NW100%10000m1015hPa85%
19-Apr-2024 21:00Light Snow0°C16 mph, NW99%10000m1018hPa89%
20-Apr-2024 00:00Overcast Clouds-0°C16 mph, NW99%10000m1021hPa79%
20-Apr-2024 03:00Broken Clouds1°C13 mph, NW75%10000m1024hPa60%
20-Apr-2024 06:00Scattered Clouds4°C13 mph, NW40%10000m1025hPa45%
20-Apr-2024 09:00Clear Sky5°C13 mph, NW8%10000m1025hPa40%
20-Apr-2024 12:00Scattered Clouds4°C9 mph, NW39%10000m1025hPa48%
20-Apr-2024 15:00Broken Clouds1°C7 mph, W51%10000m1025hPa67%